Time;durP1;ratioP1;P1;durP2;ratioP2;P2;SDS_P1;SDS_P2;PMS_P1;PMS_P2;Temp;Humidity;BMP_temperature;BMP_pressure;BME280_temperature;BME280_humidity;BME280_pressure;Samples;Min_cycle;Max_cycle;Signal;HPM_P1;HPM_P2
2023/03/04 00:00:49;;;;;;;23.23;12.32;;;;;;;5.80;82.86;93929.09;5064780;28;20060;-77
2023/03/04 00:03:14;;;;;;;21.58;13.02;;;;;;;5.84;82.41;93935.41;5064626;28;20047;-77
2023/03/04 00:05:40;;;;;;;25.30;13.38;;;;;;;5.86;82.33;93927.19;5063463;28;20061;-77
2023/03/04 00:08:06;;;;;;;24.05;13.98;;;;;;;5.87;82.21;93928.78;5064522;28;20021;-74
2023/03/04 00:10:31;;;;;;;26.00;14.73;;;;;;;5.86;82.27;93921.88;5063566;28;20017;-75
2023/03/04 00:12:56;;;;;;;26.45;14.98;;;;;;;5.87;81.87;93923.47;5063248;28;20079;-77
2023/03/04 00:15:22;;;;;;;24.88;15.50;;;;;;;5.91;81.72;93919.22;5063726;28;20017;-77
2023/03/04 00:17:47;;;;;;;22.40;13.40;;;;;;;5.89;81.82;93927.41;5063748;28;20016;-76
2023/03/04 00:20:13;;;;;;;22.83;13.55;;;;;;;5.87;81.99;93921.63;5064265;28;20193;-76
2023/03/04 00:22:38;;;;;;;28.20;14.77;;;;;;;5.88;81.64;93914.47;5064638;28;20033;-76
2023/03/04 00:25:05;;;;;;;27.75;14.93;;;;;;;5.83;81.57;93923.25;5064275;28;20100;-76
2023/03/04 00:27:30;;;;;;;26.55;14.27;;;;;;;5.81;81.46;93915.59;5063933;28;20032;-76
2023/03/04 00:29:56;;;;;;;25.10;14.65;;;;;;;5.76;81.81;93918.31;5064306;28;20045;-76
2023/03/04 00:32:22;;;;;;;24.83;14.75;;;;;;;5.78;81.89;93921.47;5064206;28;20033;-77
2023/03/04 00:34:47;;;;;;;25.48;14.07;;;;;;;5.78;81.79;93921.47;5063998;28;20032;-77
2023/03/04 00:37:13;;;;;;;30.00;14.93;;;;;;;5.79;82.09;93920.38;5063958;28;20323;-77
2023/03/04 00:39:38;;;;;;;28.02;14.75;;;;;;;5.78;82.21;93918.81;5064092;28;20087;-77
2023/03/04 00:42:04;;;;;;;23.85;13.43;;;;;;;5.79;82.17;93917.72;5063895;28;20025;-76
2023/03/04 00:44:29;;;;;;;24.83;14.68;;;;;;;5.79;82.33;93920.38;5063888;28;20034;-75
2023/03/04 00:46:55;;;;;;;25.48;14.50;;;;;;;5.84;82.00;93919.53;5063812;28;20021;-76
2023/03/04 00:49:20;;;;;;;23.33;13.70;;;;;;;5.85;82.19;93917.69;5063450;28;20040;-76
2023/03/04 00:51:46;;;;;;;22.92;13.32;;;;;;;5.86;82.00;93914.75;5063886;28;20023;-76
2023/03/04 00:54:11;;;;;;;25.50;12.63;;;;;;;5.87;81.13;93916.31;5063700;28;20032;-76
2023/03/04 00:56:37;;;;;;;23.15;12.35;;;;;;;5.80;81.04;93914.03;5063819;28;20066;-77
2023/03/04 00:59:02;;;;;;;21.92;12.45;;;;;;;5.76;81.13;93910.38;5063670;28;20047;-77
2023/03/04 01:01:27;;;;;;;24.02;13.45;;;;;;;5.77;81.22;93913.78;5063608;28;20400;-77
2023/03/04 01:03:53;;;;;;;24.27;12.35;;;;;;;5.77;81.31;93913.78;5063592;28;20025;-77
2023/03/04 01:06:18;;;;;;;23.30;12.43;;;;;;;5.80;81.50;93921.97;5063505;28;20029;-77
2023/03/04 01:08:44;;;;;;;20.38;12.05;;;;;;;5.83;81.54;93907.38;5063732;28;20031;-77
2023/03/04 01:11:09;;;;;;;26.58;13.32;;;;;;;5.86;81.54;93908.66;5063422;28;20319;-76
2023/03/04 01:13:35;;;;;;;25.70;13.40;;;;;;;5.86;81.42;93901.50;5062200;28;20025;-76
2023/03/04 01:16:02;;;;;;;23.63;13.25;;;;;;;5.88;80.85;93895.94;5063454;28;20027;-77
2023/03/04 01:18:28;;;;;;;25.15;12.68;;;;;;;5.88;80.77;93893.31;5063028;28;20203;-77
2023/03/04 01:20:53;;;;;;;24.42;11.75;;;;;;;5.89;80.62;93897.53;5063104;28;20028;-77
2023/03/04 01:23:19;;;;;;;27.40;13.02;;;;;;;5.90;80.57;93899.88;5063479;28;20017;-76
2023/03/04 01:25:44;;;;;;;25.95;13.95;;;;;;;5.89;80.48;93894.88;5063336;28;20334;-76
2023/03/04 01:28:10;;;;;;;22.92;11.50;;;;;;;5.91;80.46;93895.41;5061970;28;20024;-76
2023/03/04 01:30:35;;;;;;;23.42;11.27;;;;;;;5.88;80.04;93886.16;5063141;28;20031;-76
2023/03/04 01:33:01;;;;;;;24.05;13.05;;;;;;;5.85;79.93;93886.72;5063171;28;20262;-76
2023/03/04 01:35:26;;;;;;;21.77;13.07;;;;;;;5.77;80.12;93884.69;5063005;28;20020;-76
2023/03/04 01:37:52;;;;;;;24.88;12.73;;;;;;;5.71;79.91;93886.59;5063041;28;20307;-76
2023/03/04 01:40:18;;;;;;;25.88;12.73;;;;;;;5.61;80.34;93884.06;5063232;28;20219;-76
2023/03/04 01:42:44;;;;;;;25.58;13.05;;;;;;;5.55;80.72;93885.19;5063063;28;20017;-76
2023/03/04 01:45:18;;;;;;;22.02;11.60;;;;;;;5.50;80.92;93883.41;5062923;28;20028;-76
2023/03/04 01:47:47;;;;;;;20.77;11.95;;;;;;;5.45;80.90;93877.38;5062463;28;20037;-77
2023/03/04 01:50:18;;;;;;;26.80;12.63;;;;;;;5.42;81.23;93879.50;5061400;28;20053;-76
2023/03/04 01:52:44;;;;;;;23.42;12.00;;;;;;;5.37;81.17;93879.56;5062669;28;20035;-76
2023/03/04 01:55:21;;;;;;;22.35;13.00;;;;;;;5.30;81.32;93879.09;5061421;28;20021;-76
2023/03/04 01:57:49;;;;;;;25.27;13.27;;;;;;;5.32;81.59;93874.31;5063045;28;20013;-76
2023/03/04 02:00:18;;;;;;;21.58;12.50;;;;;;;5.30;81.50;93868.53;5062770;28;20024;-77
2023/03/04 02:02:44;;;;;;;24.27;11.98;;;;;;;5.29;81.14;93872.25;5062788;28;20025;-77
2023/03/04 02:05:09;;;;;;;23.85;12.25;;;;;;;5.21;81.47;93871.00;5062753;28;20336;-76
2023/03/04 02:07:35;;;;;;;23.10;12.98;;;;;;;5.14;81.54;93875.81;5062739;28;20100;-76
2023/03/04 02:10:01;;;;;;;22.27;12.10;;;;;;;5.12;81.86;93869.22;5062663;28;20255;-76
2023/03/04 02:12:27;;;;;;;20.52;11.98;;;;;;;5.10;82.09;93869.50;5062781;28;20037;-76
2023/03/04 02:14:52;;;;;;;25.30;12.98;;;;;;;5.08;82.49;93863.72;5062586;28;20324;-76
2023/03/04 02:17:26;;;;;;;21.15;11.63;;;;;;;5.08;82.29;93868.22;5062691;28;20021;-76
2023/03/04 02:20:05;;;;;;;22.83;11.27;;;;;;;5.03;82.35;93869.81;5062660;28;20033;-76
2023/03/04 02:22:34;;;;;;;20.70;11.40;;;;;;;5.02;82.14;93862.97;5062614;28;20025;-76
2023/03/04 02:25:06;;;;;;;21.38;12.05;;;;;;;4.99;82.35;93863.53;5062429;28;20044;-76
2023/03/04 02:27:31;;;;;;;21.80;11.63;;;;;;;4.97;82.11;93860.38;5062445;28;20323;-76
2023/03/04 02:29:57;;;;;;;25.02;12.55;;;;;;;4.98;82.27;93861.16;5062888;28;20092;-77
2023/03/04 02:32:22;;;;;;;22.83;11.57;;;;;;;5.02;82.19;93862.97;5066415;28;20096;-76
2023/03/04 02:34:49;;;;;;;24.35;12.82;;;;;;;5.03;82.14;93859.25;5066591;28;20044;-76
2023/03/04 02:37:16;;;;;;;23.13;12.05;;;;;;;5.06;82.07;93865.06;5066563;28;20055;-77
2023/03/04 02:39:44;;;;;;;21.70;11.77;;;;;;;5.09;81.69;93859.19;5066332;28;20021;-77
2023/03/04 02:42:10;;;;;;;22.55;11.90;;;;;;;5.15;81.76;93855.44;5066240;28;20071;-76
2023/03/04 02:44:43;;;;;;;18.63;11.35;;;;;;;5.18;81.65;93849.63;5066128;28;20020;-76
2023/03/04 02:47:10;;;;;;;23.08;12.75;;;;;;;5.20;81.60;93850.13;5066000;28;20031;-77
2023/03/04 02:49:37;;;;;;;24.33;11.82;;;;;;;5.23;81.43;93849.56;5066048;28;20074;-77
2023/03/04 02:52:16;;;;;;;22.00;12.23;;;;;;;5.26;81.72;93846.38;5065977;28;20020;-76
2023/03/04 02:54:42;;;;;;;23.42;11.68;;;;;;;5.28;80.89;93846.88;5065820;28;20096;-76
2023/03/04 02:57:10;;;;;;;21.35;12.68;;;;;;;5.26;80.20;93851.66;5066107;28;20036;-77
2023/03/04 02:59:36;;;;;;;21.40;12.32;;;;;;;5.20;80.15;93850.13;5065955;28;20047;-77
2023/03/04 03:02:02;;;;;;;19.70;11.32;;;;;;;5.18;80.39;93845.13;5065797;28;20021;-77
2023/03/04 03:04:28;;;;;;;21.98;11.07;;;;;;;5.14;80.54;93843.31;5065949;28;20037;-77
2023/03/04 03:06:53;;;;;;;21.38;11.48;;;;;;;5.14;80.55;93851.25;5065551;28;20327;-77
2023/03/04 03:09:19;;;;;;;23.90;12.48;;;;;;;5.16;80.58;93851.75;5065700;28;20017;-77
2023/03/04 03:11:45;;;;;;;22.55;12.98;;;;;;;5.14;80.61;93853.88;5065946;28;20032;-77
2023/03/04 03:14:10;;;;;;;21.75;12.60;;;;;;;5.15;80.53;93858.09;5065485;28;20350;-77
2023/03/04 03:16:36;;;;;;;28.42;13.63;;;;;;;5.16;80.17;93859.69;5065530;28;20035;-77
2023/03/04 03:19:02;;;;;;;23.52;13.32;;;;;;;5.11;80.40;93854.44;5065551;28;20077;-77
2023/03/04 03:21:27;;;;;;;24.58;13.25;;;;;;;5.09;80.43;93854.72;5065554;28;20326;-77
2023/03/04 03:23:53;;;;;;;27.27;14.32;;;;;;;5.09;80.27;93851.28;5065444;28;20040;-76
2023/03/04 03:26:19;;;;;;;30.85;15.05;;;;;;;5.09;80.36;93853.91;5065399;28;20028;-75
2023/03/04 03:28:45;;;;;;;28.63;14.70;;;;;;;5.12;80.28;93850.72;5065355;28;20035;-75
2023/03/04 03:31:11;;;;;;;32.90;14.68;;;;;;;5.10;80.43;93847.59;5065440;28;20131;-76
2023/03/04 03:33:36;;;;;;;25.40;13.93;;;;;;;5.09;80.59;93849.44;5065350;28;20040;-76
2023/03/04 03:36:02;;;;;;;27.23;14.02;;;;;;;5.09;80.57;93854.72;5065137;28;20028;-75
2023/03/04 03:38:27;;;;;;;27.27;14.10;;;;;;;5.08;80.70;93847.06;5065159;28;20021;-75
2023/03/04 03:40:53;;;;;;;30.30;14.90;;;;;;;5.07;80.52;93838.38;5064861;28;20029;-75
2023/03/04 03:43:18;;;;;;;27.08;14.45;;;;;;;5.07;80.65;93837.56;5065406;28;20025;-75
2023/03/04 03:45:44;;;;;;;29.48;16.38;;;;;;;5.06;80.40;93828.84;5064997;28;20024;-75
2023/03/04 03:48:10;;;;;;;26.33;14.77;;;;;;;4.99;80.54;93837.09;5064739;28;20041;-76
2023/03/04 03:50:35;;;;;;;26.45;14.95;;;;;;;4.94;80.46;93837.13;5064820;28;20017;-75
2023/03/04 03:53:01;;;;;;;31.17;16.45;;;;;;;4.91;80.22;93839.56;5064970;28;20265;-75
2023/03/04 03:55:26;;;;;;;32.67;15.50;;;;;;;4.89;80.18;93831.13;5064832;28;20016;-76
2023/03/04 03:57:51;;;;;;;28.85;16.60;;;;;;;4.85;79.88;93830.91;5064894;28;20019;-76
2023/03/04 04:00:18;;;;;;;33.88;16.98;;;;;;;4.79;79.78;93830.16;5064845;28;20013;-76
2023/03/04 04:02:43;;;;;;;35.95;15.27;;;;;;;4.75;79.84;93825.69;5064525;28;20096;-76
2023/03/04 04:05:09;;;;;;;33.65;17.17;;;;;;;4.66;79.78;93822.88;5064526;28;20033;-76
2023/03/04 04:07:36;;;;;;;28.40;14.48;;;;;;;4.62;79.92;93817.34;5064557;28;20017;-76
2023/03/04 04:10:02;;;;;;;27.73;13.93;;;;;;;4.59;79.65;93828.44;5064648;28;20016;-76
2023/03/04 04:12:27;;;;;;;23.33;13.88;;;;;;;4.54;79.49;93823.22;5064645;28;20016;-76
2023/03/04 04:14:53;;;;;;;26.10;12.82;;;;;;;4.51;79.55;93826.41;5064296;28;20032;-76
2023/03/04 04:17:18;;;;;;;25.65;13.45;;;;;;;4.45;79.40;93827.50;5064533;28;20020;-76
2023/03/04 04:19:44;;;;;;;19.55;11.20;;;;;;;4.37;79.43;93820.16;5064488;28;20020;-75
2023/03/04 04:22:21;;;;;;;21.52;11.00;;;;;;;4.31;79.37;93829.19;5064259;28;20099;-76
2023/03/04 04:24:47;;;;;;;17.60;10.02;;;;;;;4.25;79.15;93822.38;5064487;28;20024;-76
2023/03/04 04:27:13;;;;;;;23.38;10.85;;;;;;;4.22;79.10;93824.50;5064121;28;20028;-76
2023/03/04 04:29:39;;;;;;;20.88;9.38;;;;;;;4.18;78.77;93822.69;5064074;28;20469;-76
2023/03/04 04:32:05;;;;;;;18.50;7.55;;;;;;;4.11;78.80;93827.47;5064128;28;20021;-76
2023/03/04 04:34:31;;;;;;;12.13;7.07;;;;;;;4.06;78.68;93820.38;5064134;28;20222;-76
2023/03/04 04:36:56;;;;;;;13.55;7.47;;;;;;;4.04;78.74;93821.72;5063929;28;20373;-76
2023/03/04 04:39:21;;;;;;;15.32;7.43;;;;;;;4.00;78.84;93826.72;5063807;28;20024;-76
2023/03/04 04:41:47;;;;;;;13.90;6.80;;;;;;;3.97;78.90;93822.00;5064195;28;20108;-76
2023/03/04 04:44:13;;;;;;;17.40;6.97;;;;;;;3.91;78.85;93817.81;5064037;28;20219;-76
2023/03/04 04:46:40;;;;;;;14.90;6.97;;;;;;;3.88;78.80;93819.16;5063797;28;20016;-76
2023/03/04 04:49:06;;;;;;;17.08;6.57;;;;;;;3.84;78.70;93826.00;5063623;28;20033;-76
2023/03/04 04:51:33;;;;;;;12.20;6.55;;;;;;;3.80;78.81;93819.72;5063889;28;20025;-77
2023/03/04 04:54:00;;;;;;;11.15;6.38;;;;;;;3.79;78.74;93823.41;5063020;28;20021;-76
2023/03/04 04:56:26;;;;;;;13.45;6.60;;;;;;;3.74;79.00;93829.47;5063534;28;20036;-76
2023/03/04 04:58:55;;;;;;;17.25;7.70;;;;;;;3.70;79.15;93836.34;5063687;28;20316;-76
2023/03/04 05:01:20;;;;;;;17.35;8.20;;;;;;;3.70;79.11;93832.94;5063563;28;20028;-75
2023/03/04 05:03:48;;;;;;;15.40;7.90;;;;;;;3.67;79.15;93831.63;5063676;28;20222;-75
2023/03/04 05:06:14;;;;;;;14.00;7.07;;;;;;;3.68;79.12;93837.69;5063473;28;20023;-75
2023/03/04 05:08:40;;;;;;;18.13;8.48;;;;;;;3.64;79.25;93832.16;5063501;28;20100;-76
2023/03/04 05:11:06;;;;;;;16.20;7.88;;;;;;;3.66;79.29;93850.34;5063327;28;20025;-75
2023/03/04 05:13:31;;;;;;;18.88;8.40;;;;;;;3.63;79.31;93849.06;5063312;28;20204;-75
2023/03/04 05:15:57;;;;;;;13.18;7.50;;;;;;;3.63;79.33;93843.00;5062266;28;20074;-75
2023/03/04 05:18:24;;;;;;;17.95;9.25;;;;;;;3.66;79.31;93847.72;5063371;28;20370;-75
2023/03/04 05:20:55;;;;;;;15.88;8.27;;;;;;;3.67;79.46;93854.59;5063395;28;20021;-75
2023/03/04 05:23:21;;;;;;;20.13;9.43;;;;;;;3.70;79.59;93848.75;5063147;28;20021;-76
2023/03/04 05:25:47;;;;;;;21.90;10.45;;;;;;;3.73;79.67;93858.78;5063300;28;20052;-76
2023/03/04 05:28:13;;;;;;;26.05;11.75;;;;;;;3.78;79.69;93862.16;5063233;28;20096;-76
2023/03/04 05:30:39;;;;;;;30.33;11.00;;;;;;;3.83;80.19;93864.00;5063023;28;20084;-76
2023/03/04 05:33:07;;;;;;;24.85;9.52;;;;;;;3.90;80.11;93853.16;5062997;28;20070;-76
2023/03/04 05:35:36;;;;;;;22.35;10.95;;;;;;;3.97;80.16;93858.94;5062920;28;20025;-76
2023/03/04 05:38:04;;;;;;;24.40;10.10;;;;;;;4.05;80.21;93862.84;5062967;28;20017;-76
2023/03/04 05:40:30;;;;;;;17.73;9.45;;;;;;;4.13;80.63;93863.06;5063164;28;20102;-76
2023/03/04 05:42:55;;;;;;;19.95;8.70;;;;;;;4.21;80.66;93862.50;5063021;28;20033;-76
2023/03/04 05:45:21;;;;;;;22.95;10.02;;;;;;;4.33;80.79;93866.63;5062730;28;20269;-75
2023/03/04 05:47:47;;;;;;;22.02;8.45;;;;;;;4.41;81.10;93860.78;5062712;28;20169;-75
2023/03/04 05:50:12;;;;;;;18.17;9.02;;;;;;;4.50;81.03;93860.97;5062725;28;20021;-75
2023/03/04 05:52:38;;;;;;;17.83;9.38;;;;;;;4.59;81.08;93865.41;5062830;28;20075;-75
2023/03/04 05:55:03;;;;;;;15.70;8.18;;;;;;;4.68;81.08;93867.47;5062573;28;20032;-74
2023/03/04 05:57:29;;;;;;;17.55;8.52;;;;;;;4.77;81.09;93873.75;5062690;28;20044;-74
2023/03/04 05:59:54;;;;;;;12.60;8.25;;;;;;;4.88;80.95;93871.81;5062726;28;20197;-74
2023/03/04 06:02:19;;;;;;;17.13;8.88;;;;;;;4.95;80.77;93875.72;5062859;28;20024;-75
2023/03/04 06:04:45;;;;;;;16.23;8.93;;;;;;;5.05;80.81;93874.84;5064610;28;20032;-75
2023/03/04 06:07:10;;;;;;;19.65;9.98;;;;;;;5.15;80.65;93871.28;5066968;28;20033;-76
2023/03/04 06:09:44;;;;;;;21.38;9.45;;;;;;;5.25;80.54;93873.06;5066778;28;20032;-75
2023/03/04 06:12:10;;;;;;;23.05;10.25;;;;;;;5.31;80.37;93875.41;5066724;28;20108;-75
2023/03/04 06:14:36;;;;;;;19.58;8.80;;;;;;;5.39;80.01;93876.63;5066570;28;20265;-76
2023/03/04 06:17:01;;;;;;;24.63;10.57;;;;;;;5.45;79.88;93880.78;5066720;28;20025;-76
2023/03/04 06:19:26;;;;;;;23.42;10.38;;;;;;;5.46;78.92;93881.59;5066596;28;20021;-75
2023/03/04 06:21:52;;;;;;;23.75;10.57;;;;;;;5.43;77.67;93878.44;5066649;28;20082;-76
2023/03/04 06:24:17;;;;;;;34.33;17.35;;;;;;;5.39;77.31;93885.38;5066276;28;20379;-77
2023/03/04 06:26:43;;;;;;;27.23;15.43;;;;;;;5.36;77.10;93893.06;5066507;28;20025;-77
2023/03/04 06:29:08;;;;;;;29.42;10.95;;;;;;;5.33;76.76;93890.97;5066351;28;20029;-78
2023/03/04 06:31:34;;;;;;;44.25;15.02;;;;;;;5.26;76.42;93883.38;5066335;28;20021;-76
2023/03/04 06:33:59;;;;;;;32.25;13.80;;;;;;;5.29;76.21;93882.81;5066061;28;20096;-75
2023/03/04 06:36:25;;;;;;;26.42;13.20;;;;;;;5.28;75.72;93891.81;5065867;28;20021;-76
2023/03/04 06:38:50;;;;;;;22.17;10.02;;;;;;;5.25;75.98;93889.72;5066195;28;20037;-76
2023/03/04 06:41:15;;;;;;;20.48;9.82;;;;;;;5.21;76.74;93896.59;5066200;28;20021;-76
2023/03/04 06:43:41;;;;;;;20.40;9.52;;;;;;;5.21;77.03;93892.13;5065726;28;20088;-76
2023/03/04 06:46:07;;;;;;;21.40;11.10;;;;;;;5.26;76.66;93904.50;5065725;28;20049;-75
2023/03/04 06:48:33;;;;;;;28.05;10.07;;;;;;;5.23;76.90;93897.94;5064466;28;20043;-75
2023/03/04 06:51:04;;;;;;;21.38;10.35;;;;;;;5.22;77.10;93904.25;5065890;28;20025;-75
2023/03/04 06:53:30;;;;;;;23.88;12.02;;;;;;;5.26;76.78;93901.88;5066173;28;20223;-75
2023/03/04 06:55:55;;;;;;;25.83;12.93;;;;;;;5.26;77.28;93896.56;5065636;28;20016;-75
2023/03/04 06:58:21;;;;;;;24.00;11.52;;;;;;;5.32;77.23;93905.25;5065826;28;20104;-75
2023/03/04 07:00:46;;;;;;;28.90;12.75;;;;;;;5.36;77.34;93904.41;5065914;28;20027;-75
2023/03/04 07:03:12;;;;;;;27.10;12.52;;;;;;;5.41;77.40;93911.50;5065650;28;20091;-75
2023/03/04 07:05:37;;;;;;;21.63;12.23;;;;;;;5.43;77.41;93910.19;5065635;28;20131;-75
2023/03/04 07:08:03;;;;;;;23.25;12.63;;;;;;;5.43;77.45;93898.78;5065536;28;20225;-75
2023/03/04 07:10:28;;;;;;;28.30;13.80;;;;;;;5.51;77.32;93905.34;5064518;28;20032;-75
2023/03/04 07:12:54;;;;;;;28.30;13.50;;;;;;;5.57;77.00;93906.84;5065474;28;20025;-76
2023/03/04 07:15:19;;;;;;;23.50;12.57;;;;;;;5.62;76.93;93912.88;5065308;28;20078;-75
2023/03/04 07:17:45;;;;;;;25.83;13.15;;;;;;;5.67;76.65;93911.25;5065250;28;20327;-76
2023/03/04 07:20:10;;;;;;;22.92;12.93;;;;;;;5.74;76.53;93915.16;5065572;28;20131;-76
2023/03/04 07:22:36;;;;;;;22.77;13.50;;;;;;;5.77;76.31;93914.56;5065446;28;20037;-77
2023/03/04 07:25:01;;;;;;;28.58;12.75;;;;;;;5.82;76.03;93913.72;5065291;28;20036;-75
2023/03/04 07:27:27;;;;;;;34.28;14.82;;;;;;;5.83;76.35;93913.44;5064905;28;20035;-76
2023/03/04 07:29:52;;;;;;;25.20;12.63;;;;;;;5.83;76.49;93910.81;5065246;28;20013;-75
2023/03/04 07:32:18;;;;;;;25.95;14.20;;;;;;;5.96;76.32;93917.31;5065351;28;20070;-77
2023/03/04 07:34:43;;;;;;;36.38;14.73;;;;;;;6.01;76.22;93914.59;5065221;28;20017;-76
2023/03/04 07:37:08;;;;;;;33.38;13.88;;;;;;;6.02;75.48;93910.91;5065117;28;20025;-75
2023/03/04 07:39:34;;;;;;;23.17;12.10;;;;;;;6.00;75.45;93918.34;5064076;28;20091;-75
2023/03/04 07:41:59;;;;;;;26.50;12.95;;;;;;;5.93;75.48;93917.84;5064999;28;20028;-76
2023/03/04 07:44:25;;;;;;;30.92;13.93;;;;;;;5.90;75.77;93922.91;5065052;28;20037;-75
2023/03/04 07:46:50;;;;;;;25.48;13.15;;;;;;;5.92;75.86;93920.75;5064816;28;20027;-76
2023/03/04 07:49:16;;;;;;;24.33;13.07;;;;;;;5.96;75.83;93908.56;5064787;28;20036;-75
2023/03/04 07:51:41;;;;;;;25.10;12.95;;;;;;;5.95;75.19;93913.09;5064972;28;20311;-75
2023/03/04 07:54:06;;;;;;;19.77;11.52;;;;;;;5.95;74.75;93909.66;5064841;28;20040;-82
2023/03/04 07:56:33;;;;;;;23.15;11.73;;;;;;;5.90;74.65;93910.47;5064644;28;20016;-74
2023/03/04 07:58:59;;;;;;;24.63;12.05;;;;;;;5.85;74.33;93904.47;5064623;28;20040;-74
2023/03/04 08:01:30;;;;;;;23.85;11.40;;;;;;;5.82;74.73;93906.59;5064693;28;20020;-75
2023/03/04 08:03:56;;;;;;;29.40;11.52;;;;;;;5.83;74.88;93907.38;5064630;28;20337;-76
2023/03/04 08:06:23;;;;;;;21.58;10.32;;;;;;;5.89;74.75;93903.59;5064761;28;20029;-76
2023/03/04 08:08:54;;;;;;;20.73;11.40;;;;;;;5.87;74.42;93905.75;5064643;28;20020;-76
2023/03/04 08:11:20;;;;;;;20.95;10.65;;;;;;;5.95;74.78;93904.38;5064606;28;20235;-77
2023/03/04 08:13:46;;;;;;;23.58;10.98;;;;;;;5.96;74.54;93903.28;5064749;28;20096;-78
2023/03/04 08:16:14;;;;;;;22.73;10.10;;;;;;;6.05;74.48;93919.34;5064367;28;20017;-74
2023/03/04 08:18:45;;;;;;;19.10;10.38;;;;;;;6.08;73.39;93913.47;5064166;28;20049;-74
2023/03/04 08:21:12;;;;;;;18.88;10.13;;;;;;;6.11;73.75;93908.41;5064219;28;20028;-73
2023/03/04 08:23:38;;;;;;;20.13;9.32;;;;;;;6.09;73.67;93913.19;5064175;28;20027;-76
2023/03/04 08:26:15;;;;;;;17.88;9.70;;;;;;;6.17;72.45;93901.19;5064139;28;20017;-75
2023/03/04 08:28:41;;;;;;;21.15;9.77;;;;;;;6.21;71.68;93903.00;5063038;28;20025;-76
2023/03/04 08:31:06;;;;;;;21.23;9.85;;;;;;;6.29;71.82;93898.13;5064006;28;20388;-76
2023/03/04 08:33:32;;;;;;;21.35;9.95;;;;;;;6.46;71.45;93903.72;5063974;28;20020;-75
2023/03/04 08:35:58;;;;;;;19.67;10.15;;;;;;;6.62;70.65;93896.38;5063827;28;20219;-75
2023/03/04 08:38:24;;;;;;;24.15;10.27;;;;;;;6.74;70.35;93898.59;5063767;28;20025;-75
2023/03/04 08:40:55;;;;;;;24.08;11.18;;;;;;;6.98;70.48;93893.97;5064378;28;20032;-75
2023/03/04 08:43:22;;;;;;;21.30;9.60;;;;;;;7.20;69.55;93892.56;5063808;28;20047;-76
2023/03/04 08:45:47;;;;;;;21.02;10.43;;;;;;;7.36;68.50;93896.53;5062653;28;20025;-76
2023/03/04 08:48:13;;;;;;;22.30;10.45;;;;;;;7.61;68.69;93897.16;5063671;28;20041;-76
2023/03/04 08:50:39;;;;;;;20.77;11.10;;;;;;;7.83;68.62;93885.88;5063716;28;20312;-76
2023/03/04 08:53:04;;;;;;;22.75;10.85;;;;;;;8.12;67.90;93882.94;5063645;28;20051;-76
2023/03/04 08:55:30;;;;;;;23.08;10.05;;;;;;;8.33;66.08;93882.50;5063559;28;20028;-76
2023/03/04 08:57:55;;;;;;;18.88;9.15;;;;;;;8.46;66.05;93880.94;5063621;28;20024;-75
2023/03/04 09:00:22;;;;;;;21.27;9.25;;;;;;;8.67;64.32;93889.25;5063575;28;20036;-75
2023/03/04 09:02:48;;;;;;;25.08;9.73;;;;;;;8.71;64.46;93884.91;5063731;28;20033;-75
2023/03/04 09:05:13;;;;;;;20.65;9.80;;;;;;;8.77;64.07;93881.03;5063315;28;20031;-76
2023/03/04 09:07:39;;;;;;;17.50;7.72;;;;;;;8.78;62.00;93877.31;5063459;28;20107;-76
2023/03/04 09:10:05;;;;;;;12.52;7.20;;;;;;;8.65;61.48;93873.63;5063419;28;20017;-77
2023/03/04 09:12:30;;;;;;;11.45;6.93;;;;;;;8.57;60.78;93882.31;5063217;28;20269;-77
2023/03/04 09:14:56;;;;;;;13.80;6.57;;;;;;;8.49;61.22;93875.00;5063234;28;20036;-79
2023/03/04 09:17:21;;;;;;;21.23;8.93;;;;;;;8.43;61.45;93877.03;5063283;28;20017;-80
2023/03/04 09:19:46;;;;;;;25.05;11.43;;;;;;;8.34;62.86;93873.44;5063370;28;20215;-74
2023/03/04 09:22:12;;;;;;;27.75;9.82;;;;;;;8.26;63.61;93869.63;5062000;28;20203;-73
2023/03/04 09:24:37;;;;;;;21.77;10.75;;;;;;;8.26;64.24;93866.97;5062978;28;20028;-73
2023/03/04 09:27:03;;;;;;;24.90;11.25;;;;;;;8.22;63.84;93874.75;5062920;28;20019;-74
2023/03/04 09:29:28;;;;;;;22.48;10.43;;;;;;;8.20;63.11;93866.31;5063081;28;20033;-74
2023/03/04 09:31:54;;;;;;;21.73;11.48;;;;;;;8.13;63.38;93863.25;5063038;28;20104;-74
2023/03/04 09:34:19;;;;;;;21.52;12.00;;;;;;;8.08;63.28;93860.72;5062972;28;20032;-74
2023/03/04 09:36:44;;;;;;;21.13;11.30;;;;;;;8.02;64.50;93856.59;5063116;28;20104;-75
2023/03/04 09:39:10;;;;;;;25.88;10.52;;;;;;;8.01;64.02;93866.41;5062469;28;20047;-75
2023/03/04 09:41:47;;;;;;;25.33;10.07;;;;;;;8.13;63.67;93862.47;5062882;28;20095;-75
2023/03/04 09:44:23;;;;;;;18.95;10.38;;;;;;;8.26;63.55;93860.88;5062827;28;20044;-75
2023/03/04 09:46:50;;;;;;;18.40;9.77;;;;;;;8.37;62.23;93862.25;5063039;28;20051;-76
2023/03/04 09:49:19;;;;;;;23.65;11.20;;;;;;;8.42;62.44;93859.50;5062692;28;20063;-76
2023/03/04 09:51:47;;;;;;;20.52;10.57;;;;;;;8.45;62.24;93861.56;5062718;28;20021;-75
2023/03/04 09:54:35;;;;;;;21.60;10.70;;;;;;;8.36;62.22;93855.34;5062628;28;20028;-76
2023/03/04 09:57:29;;;;;;;22.17;10.95;;;;;;;8.31;63.05;93863.44;5062838;28;20027;-77
2023/03/04 10:00:18;;;;;;;19.67;9.60;;;;;;;8.31;62.51;93855.47;5053292;28;20043;-76
2023/03/04 10:03:02;;;;;;;24.08;11.70;;;;;;;8.33;62.36;93848.78;5062777;28;20287;-76
2023/03/04 10:05:31;;;;;;;22.33;10.55;;;;;;;8.54;61.83;93835.84;5062728;28;20036;-75
2023/03/04 10:08:38;;;;;;;24.13;11.18;;;;;;;8.67;61.49;93842.22;5062622;28;20025;-76
2023/03/04 10:11:26;;;;;;;23.48;10.98;;;;;;;8.89;61.89;93836.09;5051899;28;20036;-76
2023/03/04 10:14:32;;;;;;;20.90;10.82;;;;;;;9.20;61.49;93830.06;5062511;28;20052;-76
2023/03/04 10:16:57;;;;;;;23.05;10.63;;;;;;;9.35;59.51;93826.22;5061217;28;20039;-76
2023/03/04 10:19:50;;;;;;;18.45;10.20;;;;;;;9.29;58.72;93822.13;5062606;28;20048;-76
2023/03/04 10:22:31;;;;;;;24.02;9.80;;;;;;;9.22;58.98;93828.66;5062635;28;20021;-77
2023/03/04 10:25:14;;;;;;;23.05;11.40;;;;;;;9.23;59.89;93818.81;5062430;28;20334;-75
2023/03/04 10:27:41;;;;;;;23.30;11.55;;;;;;;9.36;59.84;93817.13;5062134;28;20025;-77
2023/03/04 10:30:27;;;;;;;31.73;13.75;;;;;;;9.52;59.86;93818.31;5061215;28;20032;-77
2023/03/04 10:32:54;;;;;;;31.27;12.57;;;;;;;9.63;59.56;93816.19;5062111;28;20067;-75
2023/03/04 10:35:27;;;;;;;23.00;13.27;;;;;;;9.76;59.60;93812.59;5062415;28;20343;-76
2023/03/04 10:37:53;;;;;;;29.17;12.85;;;;;;;9.88;58.83;93805.91;5062630;28;20029;-75
2023/03/04 10:40:21;;;;;;;20.95;10.57;;;;;;;9.84;57.84;93800.41;5062602;28;20327;-76
2023/03/04 10:42:48;;;;;;;23.38;11.27;;;;;;;9.88;57.57;93800.59;5062636;28;20028;-76
2023/03/04 10:45:26;;;;;;;23.23;10.95;;;;;;;9.90;56.46;93796.53;5061003;28;20023;-77
2023/03/04 10:47:55;;;;;;;23.02;10.63;;;;;;;9.86;57.13;93794.78;5062236;28;20036;-76
2023/03/04 10:50:24;;;;;;;21.75;11.25;;;;;;;9.85;56.84;93796.69;5061740;28;20043;-76
2023/03/04 10:52:51;;;;;;;24.27;12.02;;;;;;;9.83;56.56;93791.66;5065280;28;20045;-75
2023/03/04 10:55:28;;;;;;;24.15;11.52;;;;;;;9.75;56.84;93792.41;5065937;28;20021;-76
2023/03/04 10:58:05;;;;;;;20.58;11.20;;;;;;;9.61;56.59;93784.53;5065400;28;20029;-77
2023/03/04 11:00:35;;;;;;;21.50;10.25;;;;;;;9.48;56.45;93776.66;5065806;28;20256;-76
2023/03/04 11:03:28;;;;;;;26.10;11.05;;;;;;;9.30;57.79;93767.81;5064429;28;20048;-76
2023/03/04 11:06:12;;;;;;;22.92;11.52;;;;;;;9.15;58.41;93771.69;5065505;28;20025;-76
2023/03/04 11:08:39;;;;;;;22.50;10.75;;;;;;;8.99;58.54;93763.31;5065275;28;20033;-76
2023/03/04 11:11:41;;;;;;;22.58;11.27;;;;;;;8.91;59.01;93759.50;5065422;28;20086;-76
2023/03/04 11:14:33;;;;;;;24.35;12.77;;;;;;;8.80;60.08;93752.88;5065323;28;20024;-76
2023/03/04 11:17:01;;;;;;;28.30;10.90;;;;;;;8.75;60.06;93753.81;5065761;28;20028;-76
2023/03/04 11:19:51;;;;;;;19.50;11.27;;;;;;;8.67;60.48;93746.56;5065579;28;20267;-76
2023/03/04 11:22:20;;;;;;;28.63;11.65;;;;;;;8.69;61.67;93733.75;5065473;28;20032;-76
2023/03/04 11:25:11;;;;;;;25.83;12.07;;;;;;;8.64;62.47;93739.19;5065560;28;20062;-78
2023/03/04 11:27:59;;;;;;;17.98;10.82;;;;;;;8.58;62.90;93725.25;5063308;28;20028;-76
2023/03/04 11:30:40;;;;;;;31.27;12.88;;;;;;;8.49;64.56;93724.41;5062654;28;20025;-76